Time;durP1;ratioP1;P1;durP2;ratioP2;P2;SDS_P1;SDS_P2;PMS_P1;PMS_P2;Temp;Humidity;BMP_temperature;BMP_pressure;BME280_temperature;BME280_humidity;BME280_pressure;Samples;Min_cycle;Max_cycle;Signal;HPM_P1;HPM_P2
2022/12/31 00:00:37;;;;;;;;;2.67;2.00;;;;;13.89;92.37;100351.72;5040436;28;45681;-75
2022/12/31 00:03:03;;;;;;;;;4.00;2.00;;;;;14.45;92.83;100454.03;5058149;28;45699;-73
2022/12/31 00:05:30;;;;;;;;;1.33;1.33;;;;;13.69;92.67;100335.28;5058110;28;45582;-73
2022/12/31 00:07:56;;;;;;;;;3.00;1.00;;;;;14.49;92.58;100454.53;5058393;28;45591;-75
2022/12/31 00:10:21;;;;;;;;;0.67;0.67;;;;;14.40;92.44;100447.50;5040171;28;45562;-73
2022/12/31 00:12:47;;;;;;;;;1.00;1.00;;;;;13.59;92.28;100318.63;5057965;28;45424;-76
2022/12/31 00:15:12;;;;;;;;;4.00;4.00;;;;;14.09;92.63;100402.06;5057722;28;45221;-73
2022/12/31 00:17:38;;;;;;;;;7.75;1.00;;;;;14.04;92.53;100394.59;5058791;28;45514;-73
2022/12/31 00:20:03;;;;;;;;;3.33;1.00;;;;;13.59;92.34;100321.28;5058192;28;45531;-73
2022/12/31 00:22:29;;;;;;;;;2.67;2.67;;;;;14.48;92.50;100476.94;5057850;28;47529;-73
2022/12/31 00:24:54;;;;;;;;;1.50;1.50;;;;;14.26;92.54;100443.75;5057959;28;45682;-74
2022/12/31 00:27:21;;;;;;;;;1.50;1.25;;;;;14.21;92.12;100451.44;5057368;28;45403;-71
2022/12/31 00:29:46;;;;;;;;;3.50;1.00;;;;;14.49;92.09;100486.63;5039794;28;45361;-73
2022/12/31 00:32:11;;;;;;;;;2.00;1.00;;;;;14.36;91.76;100459.56;5057555;28;45437;-75
2022/12/31 00:34:37;;;;;;;;;1.25;1.00;;;;;14.47;91.25;100488.66;5057751;28;45438;-73
2022/12/31 00:37:02;;;;;;;;;1.00;1.00;;;;;14.46;90.98;100486.97;5039636;28;45675;-73
2022/12/31 00:39:27;;;;;;;;;2.75;1.75;;;;;13.91;90.40;100392.47;5058029;28;45356;-72
2022/12/31 00:41:53;;;;;;;;;3.00;2.50;;;;;14.39;90.41;100472.59;5039458;28;48071;-73
2022/12/31 00:44:18;;;;;;;;;0.25;0.25;;;;;14.08;90.71;100419.94;5057557;28;45554;-75
2022/12/31 00:46:44;;;;;;;;;0.75;0.75;;;;;14.27;91.42;100456.94;5058076;28;45392;-75
2022/12/31 00:49:09;;;;;;;;;1.50;1.00;;;;;13.82;91.49;100382.00;5058166;28;45439;-73
2022/12/31 00:51:35;;;;;;;;;1.00;1.00;;;;;14.34;91.48;100466.94;5057531;28;46338;-72
2022/12/31 00:54:00;;;;;;;;;0.00;0.00;;;;;14.50;91.29;100477.59;5057383;28;45364;-74
2022/12/31 00:56:28;;;;;;;;;3.25;1.00;;;;;13.81;90.99;100369.63;5057709;28;45424;-72
2022/12/31 00:58:54;;;;;;;;;1.50;0.00;;;;;14.54;90.82;100487.75;5057688;28;45361;-73
2022/12/31 01:01:28;;;;;;;;;0.75;0.75;;;;;14.56;90.53;100496.44;5057404;28;46463;-71
2022/12/31 01:03:57;;;;;;;;;0.75;0.75;;;;;14.57;90.12;100499.94;5057370;28;45386;-73
2022/12/31 01:06:23;;;;;;;;;1.75;1.75;;;;;14.23;90.05;100439.59;5057446;28;45460;-72
2022/12/31 01:08:49;;;;;;;;;1.75;0.00;;;;;14.40;89.57;100468.91;5057482;28;45197;-73
2022/12/31 01:11:18;;;;;;;;;0.00;0.00;;;;;14.61;89.19;100495.91;5055551;28;47170;-74
2022/12/31 01:14:08;;;;;;;;;3.50;2.00;;;;;14.66;88.79;100501.59;5057457;28;45416;-74
2022/12/31 01:16:43;;;;;;;;;1.00;0.75;;;;;14.67;88.67;100500.56;5059362;28;45375;-72
2022/12/31 01:19:12;;;;;;;;;1.50;1.50;;;;;14.71;88.46;100519.78;5077715;28;45509;-73
2022/12/31 01:21:39;;;;;;;;;1.25;1.25;;;;;14.19;87.89;100419.53;5058938;28;48578;-72
2022/12/31 01:24:05;;;;;;;;;1.00;0.00;;;;;14.56;88.18;100471.53;5077302;28;45648;-73
2022/12/31 01:26:31;;;;;;;;;1.00;1.00;;;;;14.75;88.04;100503.19;5077532;28;45594;-74
2022/12/31 01:28:57;;;;;;;;;1.00;1.00;;;;;14.70;88.13;100516.25;5077502;28;45549;-73
2022/12/31 01:31:23;;;;;;;;;1.00;0.00;;;;;14.66;88.08;100493.56;5077130;28;46170;-71
2022/12/31 01:33:50;;;;;;;;;1.50;1.00;;;;;14.46;88.15;100460.22;5077193;28;45431;-73
2022/12/31 01:36:18;;;;;;;;;0.75;0.75;;;;;14.77;88.08;100527.91;5077346;28;45170;-76
2022/12/31 01:38:43;;;;;;;;;1.25;1.25;;;;;14.77;87.81;100514.53;5079513;28;45350;-73
2022/12/31 01:41:15;;;;;;;;;0.75;0.75;;;;;14.83;87.25;100524.56;5080776;28;45844;-74
2022/12/31 01:43:42;;;;;;;;;2.50;1.50;;;;;14.49;87.22;100487.47;5062404;28;45454;-71
2022/12/31 01:46:11;;;;;;;;;2.00;2.00;;;;;14.89;87.22;100552.44;5080842;28;45315;-74
2022/12/31 01:48:37;;;;;;;;;0.00;0.00;;;;;14.37;87.06;100469.25;5081143;28;45335;-75
2022/12/31 01:51:06;;;;;;;;;0.25;0.00;;;;;13.62;86.95;100337.00;5062153;28;46529;-73
2022/12/31 01:53:32;;;;;;;;;1.25;0.25;;;;;14.35;87.14;100464.09;5080710;28;45243;-73
2022/12/31 01:55:59;;;;;;;;;2.00;1.00;;;;;14.88;86.93;100548.94;5080607;28;45266;-73
2022/12/31 01:58:30;;;;;;;;;1.75;0.75;;;;;14.94;86.49;100541.22;5062589;28;45270;-74
2022/12/31 02:00:57;;;;;;;;;3.75;1.00;;;;;14.81;86.66;100545.28;5080517;28;45768;-72
2022/12/31 02:03:26;;;;;;;;;2.00;0.25;;;;;14.59;86.14;100498.75;5080293;28;45240;-75
2022/12/31 02:06:06;;;;;;;;;0.00;0.00;;;;;14.98;85.80;100550.53;5080568;28;45261;-72
2022/12/31 02:08:32;;;;;;;;;1.00;0.00;;;;;14.48;85.39;100488.47;5080743;28;45277;-71
2022/12/31 02:10:57;;;;;;;;;0.00;0.00;;;;;14.84;85.33;100542.28;5080353;28;46309;-72
2022/12/31 02:13:23;;;;;;;;;1.25;1.00;;;;;14.40;84.66;100455.53;5080261;28;45397;-72
2022/12/31 02:16:03;;;;;;;;;1.75;1.00;;;;;15.06;84.05;100553.19;5063348;28;45323;-73
2022/12/31 02:18:31;;;;;;;;;0.00;0.00;;;;;14.70;84.01;100510.91;5042453;28;45532;-73
2022/12/31 02:21:26;;;;;;;;;0.00;0.00;;;;;13.37;83.62;100285.50;5059807;28;46187;-73
2022/12/31 02:24:37;;;;;;;;;0.75;0.75;;;;;15.11;83.95;100561.50;5059743;28;45243;-74
2022/12/31 02:27:20;;;;;;;;;0.00;0.00;;;;;15.07;83.71;100573.59;4978375;28;46523;-71
2022/12/31 02:30:04;;;;;;;;;0.00;0.00;;;;;15.11;83.39;100580.25;4978107;28;45492;-74
2022/12/31 02:32:46;;;;;;;;;1.50;0.75;;;;;15.04;83.43;100573.94;5039323;28;45577;-73
2022/12/31 02:35:19;;;;;;;;;1.75;0.25;;;;;14.64;83.15;100492.91;5059835;28;45412;-72
2022/12/31 02:37:50;;;;;;;;;1.00;1.00;;;;;14.99;82.90;100558.41;5059979;28;45218;-72
2022/12/31 02:40:19;;;;;;;;;0.00;0.00;;;;;14.96;83.08;100549.88;5042213;28;45440;-73
2022/12/31 02:42:45;;;;;;;;;0.00;0.00;;;;;15.04;82.71;100568.59;5059581;28;47614;-73
2022/12/31 02:45:16;;;;;;;;;1.50;0.50;;;;;14.96;82.64;100549.88;5040682;28;58888;-73
2022/12/31 02:48:00;;;;;;;;;0.00;0.00;;;;;13.85;82.48;100371.78;5059665;28;45414;-75
2022/12/31 02:50:40;;;;;;;;;0.00;0.00;;;;;15.17;82.56;100592.94;5059217;28;45443;-72
2022/12/31 02:53:29;;;;;;;;;2.00;1.00;;;;;15.18;81.98;100586.56;5059411;28;45332;-72
2022/12/31 02:56:03;;;;;;;;;0.00;0.00;;;;;15.12;81.92;100582.75;5059536;28;45466;-73
2022/12/31 03:04:32;;;;;;;;;0.50;0.50;;;;;15.19;81.60;100601.63;5059205;28;45858;-71
2022/12/31 03:07:06;;;;;;;;;0.75;0.75;;;;;15.18;81.54;100594.59;5041233;28;45974;-75
2022/12/31 03:09:32;;;;;;;;;1.00;0.00;;;;;15.17;81.48;100595.59;5059352;28;45348;-74
2022/12/31 03:14:42;;;;;;;;;0.75;0.00;;;;;15.03;81.31;100589.19;5058865;28;45816;-72
2022/12/31 03:17:07;;;;;;;;;0.25;0.25;;;;;15.14;81.44;100604.00;5040799;28;45301;-74
2022/12/31 03:22:29;;;;;;;;;3.75;1.50;;;;;15.11;81.10;100589.13;5059067;28;45448;-74
2022/12/31 03:27:51;;;;;;;;;0.00;0.00;;;;;15.05;80.89;100605.91;5059218;28;45435;-73
2022/12/31 03:30:18;;;;;;;;;0.75;0.75;;;;;14.36;81.06;100491.66;5058768;28;45276;-74
2022/12/31 03:32:44;;;;;;;;;1.00;1.00;;;;;15.01;81.34;100603.72;5059085;28;45544;-73
2022/12/31 03:35:12;;;;;;;;;1.33;1.33;;;;;14.79;80.93;100567.88;5058563;28;46781;-72
2022/12/31 03:37:38;;;;;;;;;0.00;0.00;;;;;14.31;80.75;100485.00;5058654;28;45300;-72
2022/12/31 03:40:06;;;;;;;;;1.00;1.00;;;;;15.01;80.88;100606.41;5058784;28;45236;-73
2022/12/31 03:42:31;;;;;;;;;1.00;1.00;;;;;15.07;80.46;100621.78;5058695;28;45415;-73
2022/12/31 03:44:56;;;;;;;;;1.00;1.00;;;;;14.98;80.51;100617.47;5058429;28;45915;-70
2022/12/31 03:47:22;;;;;;;;;1.00;1.00;;;;;14.98;80.23;100609.44;5058560;28;45318;-73
2022/12/31 03:49:47;;;;;;;;;0.00;0.00;;;;;14.84;80.25;100585.09;5040480;28;45466;-72
2022/12/31 03:52:12;;;;;;;;;0.50;0.50;;;;;15.05;80.07;100634.53;5058576;28;45290;-72
2022/12/31 03:54:38;;;;;;;;;1.00;0.00;;;;;14.69;80.14;100557.41;5058263;28;45187;-72
2022/12/31 03:57:03;;;;;;;;;1.00;0.00;;;;;15.06;80.02;100612.09;5040147;28;45435;-71
2022/12/31 03:59:28;;;;;;;;;3.00;1.50;;;;;14.75;79.71;100567.41;5057852;28;52825;-74
2022/12/31 04:01:54;;;;;;;;;0.67;0.67;;;;;14.98;79.63;100607.59;5057536;28;45598;-73
2022/12/31 04:04:19;;;;;;;;;2.50;1.50;;;;;14.87;79.54;100598.13;5058033;28;45629;-72
2022/12/31 04:06:44;;;;;;;;;1.67;1.00;;;;;14.83;79.72;100574.56;5058326;28;45325;-71
2022/12/31 04:09:10;;;;;;;;;1.50;1.50;;;;;14.99;79.38;100616.47;5040095;28;45435;-72
2022/12/31 04:11:35;;;;;;;;;0.33;0.33;;;;;14.10;79.61;100454.53;5057784;28;50335;-72
2022/12/31 04:14:00;;;;;;;;;1.00;1.00;;;;;14.86;79.67;100606.34;5057879;28;46120;-72
2022/12/31 04:16:26;;;;;;;;;2.00;2.00;;;;;14.94;79.59;100597.41;5058044;28;45356;-72
2022/12/31 04:18:51;;;;;;;;;4.00;2.00;;;;;14.79;79.52;100579.41;5058070;28;45463;-72
2022/12/31 04:21:16;;;;;;;;;2.00;2.00;;;;;14.99;79.25;100603.06;5058169;28;45340;-74
2022/12/31 04:23:42;;;;;;;;;3.33;1.67;;;;;14.78;79.38;100551.00;5057503;28;56135;-73
2022/12/31 04:26:07;;;;;;;;;1.00;1.00;;;;;14.93;79.82;100585.06;5057764;28;45427;-73
2022/12/31 04:28:32;;;;;;;;;2.00;1.33;;;;;14.58;79.48;100537.22;5039865;28;45380;-72
2022/12/31 04:30:58;;;;;;;;;2.00;1.00;;;;;14.23;79.34;100482.38;5058041;28;45400;-71
2022/12/31 04:33:23;;;;;;;;;1.25;1.00;;;;;14.53;79.58;100536.09;5039407;28;47729;-73
2022/12/31 04:35:48;;;;;;;;;1.33;1.00;;;;;14.83;79.20;100596.81;5057776;28;45298;-73
2022/12/31 04:38:13;;;;;;;;;1.33;1.00;;;;;14.77;79.62;100592.16;5057724;28;46690;-72
2022/12/31 04:41:15;;;;;;;;;2.25;1.00;;;;;14.93;79.42;100633.22;5057417;28;49154;-73
2022/12/31 04:43:24;;;;;;;;;1.00;1.00;;;;;14.61;79.27;100571.66;5057362;28;45809;-73
2022/12/31 04:45:49;;;;;;;;;1.50;1.50;;;;;14.83;79.32;100612.88;5057601;28;45230;-74
2022/12/31 04:48:15;;;;;;;;;3.00;3.00;;;;;14.72;79.06;100578.47;5057116;28;54937;-74
2022/12/31 04:50:40;;;;;;;;;3.00;2.00;;;;;14.95;79.25;100620.50;5039690;28;45615;-75
2022/12/31 04:53:05;;;;;;;;;2.00;2.00;;;;;14.50;79.08;100541.78;5057119;28;59583;-74
2022/12/31 04:55:31;;;;;;;;;2.75;2.25;;;;;14.97;78.86;100607.78;5057450;28;45488;-73
2022/12/31 04:57:56;;;;;;;;;2.00;2.00;;;;;15.02;78.83;100624.16;5038958;28;45309;-72
2022/12/31 05:00:21;;;;;;;;;2.67;2.00;;;;;14.93;78.89;100618.00;5057600;28;45167;-71
2022/12/31 05:02:47;;;;;;;;;1.50;1.00;;;;;14.85;79.04;100600.16;5056854;28;59769;-73
2022/12/31 05:05:12;;;;;;;;;3.25;1.25;;;;;15.04;78.71;100630.19;5039053;28;46468;-74
2022/12/31 05:07:37;;;;;;;;;1.50;1.50;;;;;15.03;78.81;100629.34;5056052;28;45233;-72
2022/12/31 05:10:03;;;;;;;;;1.33;1.33;;;;;15.03;78.59;100645.41;5056912;28;54085;-72
2022/12/31 05:12:28;;;;;;;;;1.50;0.00;;;;;14.83;78.68;100612.03;5038748;28;48545;-73
2022/12/31 05:14:53;;;;;;;;;2.00;2.00;;;;;15.04;78.51;100641.72;5056825;28;45328;-72
2022/12/31 05:17:19;;;;;;;;;3.00;3.00;;;;;14.87;78.54;100606.16;5057243;28;45383;-73
2022/12/31 05:19:45;;;;;;;;;1.00;1.00;;;;;14.51;78.58;100559.50;5057716;28;45368;-74
2022/12/31 05:22:28;;;;;;;;;5.33;1.67;;;;;14.68;78.39;100598.56;5057076;28;45347;-72
2022/12/31 05:24:54;;;;;;;;;1.67;1.67;;;;;15.02;78.65;100664.31;5057109;28;45670;-73
2022/12/31 05:27:20;;;;;;;;;3.00;2.00;;;;;15.02;78.38;100648.25;5057182;28;45312;-73
2022/12/31 05:29:45;;;;;;;;;3.00;3.00;;;;;13.66;78.26;100431.81;5057042;28;45301;-75
2022/12/31 05:32:10;;;;;;;;;1.00;1.00;;;;;14.98;78.34;100655.78;5056684;28;45611;-73
2022/12/31 05:34:36;;;;;;;;;2.00;2.00;;;;;14.43;78.54;100564.88;5056810;28;45420;-73
2022/12/31 05:37:01;;;;;;;;;1.25;1.00;;;;;14.90;78.48;100645.97;5038787;28;45435;-73
2022/12/31 05:39:26;;;;;;;;;1.00;1.00;;;;;14.99;78.23;100664.66;5057214;28;45245;-73
2022/12/31 05:41:52;;;;;;;;;1.50;1.50;;;;;14.99;78.22;100653.94;5056720;28;46311;-75
2022/12/31 05:44:17;;;;;;;;;3.50;2.75;;;;;14.67;77.95;100615.63;5056803;28;45400;-75
2022/12/31 05:46:42;;;;;;;;;3.33;2.00;;;;;14.97;78.19;100661.31;5038004;28;58753;-74
2022/12/31 05:49:08;;;;;;;;;1.00;1.00;;;;;14.39;77.99;100563.53;5057152;28;45371;-71
2022/12/31 05:51:33;;;;;;;;;2.50;2.00;;;;;14.98;78.05;100665.66;5056587;28;46280;-73
2022/12/31 05:53:58;;;;;;;;;1.33;1.00;;;;;14.97;78.04;100664.00;5056686;28;45336;-72
2022/12/31 05:56:24;;;;;;;;;1.00;1.00;;;;;14.96;77.99;100670.34;5056676;28;45299;-72
2022/12/31 05:58:49;;;;;;;;;3.67;2.33;;;;;14.94;77.86;100672.38;5056727;28;45455;-71
2022/12/31 06:01:14;;;;;;;;;2.25;2.00;;;;;14.93;78.06;100662.69;5038135;28;54625;-73
2022/12/31 06:03:40;;;;;;;;;2.67;1.67;;;;;14.90;77.99;100664.69;5056345;28;51183;-73
2022/12/31 06:06:06;;;;;;;;;3.25;2.00;;;;;14.14;77.89;100542.22;5056649;28;45467;-74
2022/12/31 06:08:32;;;;;;;;;3.00;1.67;;;;;14.88;77.84;100658.69;5057127;28;45218;-74
2022/12/31 06:10:57;;;;;;;;;3.00;1.67;;;;;14.73;78.50;100636.34;5055887;28;56669;-73
2022/12/31 06:13:22;;;;;;;;;2.67;2.67;;;;;14.74;77.97;100639.84;5037658;28;61580;-72
2022/12/31 06:15:47;;;;;;;;;1.33;1.00;;;;;14.38;78.07;100567.22;5056560;28;45234;-74
2022/12/31 06:18:13;;;;;;;;;2.67;1.67;;;;;14.78;77.95;100654.53;5038245;28;49013;-73
2022/12/31 06:20:38;;;;;;;;;0.67;0.33;;;;;14.84;78.07;100676.09;5038333;28;48280;-72
2022/12/31 06:23:04;;;;;;;;;3.67;2.67;;;;;14.82;77.95;100664.75;5056167;28;50463;-73
2022/12/31 06:25:30;;;;;;;;;3.67;3.67;;;;;14.84;77.75;100681.47;5059388;28;45452;-74
2022/12/31 06:27:55;;;;;;;;;2.67;2.00;;;;;14.83;77.79;100692.34;5059842;28;45316;-73
2022/12/31 06:30:20;;;;;;;;;2.33;2.33;;;;;14.85;77.83;100684.97;5041277;28;47678;-73
2022/12/31 06:32:46;;;;;;;;;2.00;2.00;;;;;14.64;77.37;100652.59;5059519;28;45370;-72
2022/12/31 06:35:11;;;;;;;;;1.67;1.33;;;;;14.85;77.43;100680.47;5041616;28;45388;-73
2022/12/31 06:37:37;;;;;;;;;2.00;2.00;;;;;14.93;77.54;100697.47;5059736;28;45364;-72
2022/12/31 06:40:03;;;;;;;;;2.33;2.33;;;;;14.89;77.21;100681.78;5059799;28;46271;-72
2022/12/31 06:42:29;;;;;;;;;1.00;1.00;;;;;14.90;77.20;100694.16;5059996;28;45228;-72
2022/12/31 06:44:55;;;;;;;;;4.00;2.33;;;;;14.72;77.00;100657.91;5059803;28;45443;-74
2022/12/31 06:47:21;;;;;;;;;5.33;3.00;;;;;14.90;77.13;100688.78;5059710;28;45281;-71
2022/12/31 06:49:46;;;;;;;;;1.67;1.67;;;;;14.83;76.59;100669.09;5059174;28;49471;-74
2022/12/31 06:52:12;;;;;;;;;4.00;2.33;;;;;14.55;76.70;100638.41;5059307;28;45436;-72
2022/12/31 06:54:37;;;;;;;;;2.00;2.00;;;;;15.02;76.58;100707.16;5059493;28;45277;-73
2022/12/31 06:57:03;;;;;;;;;2.33;2.00;;;;;15.01;76.44;100708.16;5059662;28;45167;-71
2022/12/31 06:59:29;;;;;;;;;3.25;2.50;;;;;14.81;76.77;100675.59;5059254;28;46339;-71
2022/12/31 07:01:54;;;;;;;;;2.00;2.00;;;;;15.03;76.49;100712.34;5041051;28;45388;-71
2022/12/31 07:04:25;;;;;;;;;2.00;2.00;;;;;15.04;76.25;100715.84;5059086;28;45360;-74
2022/12/31 07:07:04;;;;;;;;;1.25;1.25;;;;;15.07;76.18;100726.22;5059502;28;45451;-74
2022/12/31 07:09:37;;;;;;;;;4.67;2.00;;;;;15.06;75.97;100730.75;5058745;28;45821;-73
2022/12/31 07:12:29;;;;;;;;;4.33;2.00;;;;;14.99;76.17;100708.31;5058871;28;45368;-73
2022/12/31 07:15:05;;;;;;;;;2.25;2.00;;;;;15.08;76.14;100709.97;5058826;28;45481;-72
2022/12/31 07:18:13;;;;;;;;;4.00;3.00;;;;;15.08;75.86;100722.53;5041084;28;45514;-72
2022/12/31 07:20:39;;;;;;;;;4.25;2.50;;;;;14.96;75.86;100686.41;4976932;28;47724;-74
2022/12/31 07:23:06;;;;;;;;;4.33;3.00;;;;;14.82;75.65;100683.47;5027991;28;45554;-71
2022/12/31 07:25:34;;;;;;;;;4.25;2.50;;;;;14.72;75.58;100669.44;5058889;28;45463;-71
2022/12/31 07:28:36;;;;;;;;;3.00;3.00;;;;;15.09;75.80;100710.81;5058991;28;45265;-74
2022/12/31 07:31:29;;;;;;;;;4.00;2.75;;;;;14.99;75.36;100694.94;5059162;28;46569;-73
2022/12/31 07:34:00;;;;;;;;;4.25;2.25;;;;;14.80;75.26;100685.47;5057229;28;45416;-72
2022/12/31 07:36:28;;;;;;;;;2.75;2.00;;;;;15.13;75.71;100741.56;5058349;28;45317;-74
2022/12/31 07:39:15;;;;;;;;;2.33;2.33;;;;;14.84;75.69;100691.34;5040763;28;45656;-75
2022/12/31 07:42:35;;;;;;;;;4.33;3.00;;;;;15.02;75.45;100734.78;5058493;28;45499;-72
2022/12/31 07:45:16;;;;;;;;;3.50;2.00;;;;;15.11;75.34;100749.78;5018427;28;45303;-73
2022/12/31 07:47:42;;;;;;;;;3.25;3.00;;;;;15.10;75.12;100758.81;5040351;28;45335;-74
2022/12/31 07:50:16;;;;;;;;;2.25;2.25;;;;;14.58;75.06;100676.34;5058493;28;45545;-73
2022/12/31 07:52:42;;;;;;;;;3.00;3.00;;;;;15.03;74.93;100778.44;5058648;28;47391;-73
2022/12/31 07:55:09;;;;;;;;;4.00;3.00;;;;;14.86;75.09;100740.19;5040712;28;47206;-73
2022/12/31 07:57:43;;;;;;;;;2.00;2.00;;;;;15.03;75.05;100781.97;5040305;28;45458;-75
2022/12/31 08:00:14;;;;;;;;;2.25;1.00;;;;;15.09;74.88;100799.16;5058574;28;45332;-74
2022/12/31 08:03:09;;;;;;;;;2.00;2.00;;;;;15.06;74.69;100789.63;5058022;28;46848;-73
2022/12/31 08:06:07;;;;;;;;;3.75;3.75;;;;;15.05;74.73;100787.13;5040079;28;45900;-76
2022/12/31 08:08:59;;;;;;;;;3.75;2.75;;;;;14.59;74.42;100711.97;5058082;28;45273;-76
2022/12/31 08:11:39;;;;;;;;;3.25;3.25;;;;;15.01;74.56;100777.75;5057707;28;45642;-75
2022/12/31 08:14:09;;;;;;;;;3.25;3.25;;;;;14.47;74.38;100686.59;5057714;28;45542;-74
2022/12/31 08:16:34;;;;;;;;;5.50;1.00;;;;;15.02;74.28;100782.97;5058027;28;45508;-76
2022/12/31 08:19:00;;;;;;;;;1.00;1.00;;;;;14.96;74.40;100766.72;5058111;28;45304;-75
2022/12/31 08:21:47;;;;;;;;;5.67;3.00;;;;;14.81;74.13;100759.41;5058435;28;45329;-75
2022/12/31 08:24:18;;;;;;;;;3.25;3.00;;;;;14.97;74.36;100787.97;5039706;28;48861;-74
2022/12/31 08:27:11;;;;;;;;;4.50;4.00;;;;;15.00;74.23;100810.88;5057606;28;45308;-75
2022/12/31 08:29:46;;;;;;;;;3.00;3.00;;;;;14.99;74.09;100798.50;5057929;28;45263;-72
2022/12/31 08:32:21;;;;;;;;;4.00;3.00;;;;;14.89;73.79;100777.31;5039789;28;45515;-74
2022/12/31 08:35:01;;;;;;;;;3.33;2.33;;;;;15.00;73.95;100802.84;5057572;28;45776;-76
2022/12/31 08:37:42;;;;;;;;;4.67;4.00;;;;;14.99;73.86;100793.16;5039310;28;46752;-75
2022/12/31 08:40:30;;;;;;;;;6.33;5.00;;;;;15.01;73.48;100804.53;5039297;28;45495;-75
2022/12/31 08:43:12;;;;;;;;;4.00;2.67;;;;;15.02;73.23;100817.78;5058183;28;45328;-73
2022/12/31 08:45:47;;;;;;;;;2.33;2.33;;;;;14.70;73.37;100762.44;5057543;28;46112;-75
2022/12/31 08:48:42;;;;;;;;;6.00;4.67;;;;;14.99;73.31;100814.56;5038560;28;45424;-73
2022/12/31 08:51:16;;;;;;;;;5.67;2.33;;;;;15.01;73.43;100829.47;5048345;28;45329;-73
2022/12/31 08:53:42;;;;;;;;;4.00;4.00;;;;;14.50;73.11;100729.03;5057717;28;45489;-75
2022/12/31 08:56:34;;;;;;;;;3.67;3.33;;;;;14.81;73.01;100796.88;5057306;28;46735;-75
2022/12/31 08:59:11;;;;;;;;;5.00;4.00;;;;;14.96;72.98;100823.78;5056652;28;45240;-73
2022/12/31 09:02:13;;;;;;;;;2.33;2.33;;;;;14.20;73.06;100698.44;5038927;28;45349;-77
2022/12/31 09:05:08;;;;;;;;;5.00;4.00;;;;;14.95;73.07;100826.63;5058093;28;45487;-72
2022/12/31 09:07:40;;;;;;;;;5.00;5.00;;;;;14.81;72.56;100814.78;5038753;28;46492;-74
2022/12/31 09:10:22;;;;;;;;;3.33;3.33;;;;;14.95;72.67;100840.03;5057255;28;45395;-74
2022/12/31 09:13:24;;;;;;;;;3.00;3.00;;;;;14.98;72.46;100835.16;5039546;28;45328;-76
2022/12/31 09:16:30;;;;;;;;;3.33;3.33;;;;;15.01;72.52;100842.00;5057255;28;45530;-74
2022/12/31 09:18:56;;;;;;;;;4.00;4.00;;;;;14.29;72.16;100703.63;4975556;28;45612;-76
2022/12/31 09:21:21;;;;;;;;;3.25;2.75;;;;;15.00;71.81;100826.94;5040074;28;45282;-73
2022/12/31 09:23:47;;;;;;;;;4.67;4.00;;;;;15.01;72.21;100839.34;5057401;28;45394;-76
2022/12/31 09:26:41;;;;;;;;;4.33;4.33;;;;;15.10;71.51;100822.25;5039323;28;45503;-76
2022/12/31 09:29:15;;;;;;;;;4.00;3.00;;;;;15.12;71.50;100852.38;5056418;28;46608;-73
2022/12/31 09:32:18;;;;;;;;;1.00;1.00;;;;;15.16;71.01;100835.78;5056602;28;45555;-75
2022/12/31 09:35:11;;;;;;;;;6.67;6.33;;;;;15.15;70.99;100838.63;5056725;28;45487;-74
2022/12/31 09:37:48;;;;;;;;;3.67;3.67;;;;;15.11;70.69;100830.13;5038673;28;45400;-74
2022/12/31 09:40:51;;;;;;;;;3.25;3.00;;;;;15.23;70.14;100835.97;5056420;28;45656;-74
2022/12/31 09:43:44;;;;;;;;;2.67;2.33;;;;;15.21;70.20;100829.91;5057241;28;45345;-74
2022/12/31 09:46:41;;;;;;;;;6.33;6.33;;;;;15.25;70.08;100846.50;5057310;28;45256;-74
2022/12/31 09:49:18;;;;;;;;;4.00;4.00;;;;;15.31;69.93;100845.81;5058054;28;45397;-74
2022/12/31 09:52:08;;;;;;;;;3.33;3.00;;;;;15.30;69.76;100847.66;5056330;28;47023;-76
2022/12/31 09:54:52;;;;;;;;;4.00;4.00;;;;;15.35;69.55;100837.25;5056169;28;45250;-75
2022/12/31 09:57:29;;;;;;;;;4.00;3.67;;;;;15.35;69.24;100833.72;5056458;28;45556;-73
2022/12/31 10:00:24;;;;;;;;;3.00;3.00;;;;;15.34;68.98;100856.16;5058579;28;45327;-74
2022/12/31 10:02:52;;;;;;;;;4.00;4.00;;;;;15.37;68.94;100845.09;5045598;28;46570;-73
2022/12/31 10:05:39;;;;;;;;;5.00;4.67;;;;;15.33;68.51;100817.00;5061292;28;45385;-73
2022/12/31 10:08:46;;;;;;;;;4.50;3.25;;;;;15.47;68.49;100818.97;5060304;28;45293;-75
2022/12/31 10:11:37;;;;;;;;;3.75;2.75;;;;;15.48;67.54;100837.53;5020392;28;45208;-74
2022/12/31 10:14:14;;;;;;;;;5.00;4.00;;;;;15.51;67.84;100839.03;5059241;28;48402;-74
2022/12/31 10:16:57;;;;;;;;;4.00;3.00;;;;;15.51;67.83;100826.47;5059917;28;45309;-76
2022/12/31 10:19:53;;;;;;;;;3.67;3.67;;;;;15.53;67.54;100837.00;5059913;28;45460;-74
2022/12/31 10:22:37;;;;;;;;;4.33;4.33;;;;;14.83;67.29;100698.53;5041901;28;45480;-74
2022/12/31 10:25:22;;;;;;;;;6.67;5.00;;;;;15.58;67.23;100815.88;5040898;28;47732;-75
2022/12/31 10:27:59;;;;;;;;;5.33;3.67;;;;;15.64;67.44;100825.94;5059469;28;45561;-76
2022/12/31 10:30:26;;;;;;;;;7.67;3.67;;;;;15.10;66.62;100720.50;5059402;28;45293;-74
2022/12/31 10:33:15;;;;;;;;;4.00;4.00;;;;;15.70;66.60;100814.53;5060117;28;45309;-73
2022/12/31 10:35:58;;;;;;;;;4.00;2.33;;;;;15.71;66.01;100818.03;5059429;28;46521;-74
2022/12/31 10:38:46;;;;;;;;;4.00;4.00;;;;;15.73;65.67;100814.16;5059212;28;45486;-74
2022/12/31 10:41:27;;;;;;;;;4.33;3.67;;;;;15.85;65.20;100830.69;5034165;28;45478;-75
2022/12/31 10:44:13;;;;;;;;;5.00;3.67;;;;;15.95;65.23;100822.41;5059668;28;45233;-73
2022/12/31 10:46:48;;;;;;;;;2.33;2.33;;;;;15.98;64.80;100816.69;5040911;28;48017;-76
2022/12/31 10:49:30;;;;;;;;;5.00;4.00;;;;;15.82;64.54;100769.41;5059395;28;45229;-75
2022/12/31 10:52:10;;;;;;;;;5.00;5.00;;;;;16.07;64.81;100816.47;5040908;28;45293;-73
2022/12/31 10:54:51;;;;;;;;;5.00;3.67;;;;;16.08;64.31;100807.44;5041014;28;45324;-74
2022/12/31 10:57:52;;;;;;;;;5.33;3.00;;;;;16.08;63.91;100809.28;5040717;28;47576;-74
2022/12/31 11:00:22;;;;;;;;;6.00;3.33;;;;;16.11;63.42;100792.81;5033106;28;45424;-75
2022/12/31 11:03:09;;;;;;;;;3.67;3.67;;;;;15.23;63.39;100634.25;5059074;28;45412;-77
2022/12/31 11:05:48;;;;;;;;;3.25;2.75;;;;;16.19;63.35;100803.47;5059430;28;45241;-73
2022/12/31 11:08:26;;;;;;;;;4.00;3.75;;;;;16.25;62.69;100791.22;5040559;28;49216;-76
2022/12/31 11:11:17;;;;;;;;;3.33;3.00;;;;;16.27;62.71;100792.69;5058324;28;45356;-75
2022/12/31 11:14:04;;;;;;;;;3.00;3.00;;;;;16.26;62.28;100798.25;5040894;28;45536;-75
2022/12/31 11:16:51;;;;;;;;;2.25;2.00;;;;;15.57;62.21;100679.38;5041165;28;45189;-74
2022/12/31 11:19:20;;;;;;;;;5.75;5.00;;;;;16.33;61.96;100793.81;5041473;28;46014;-74
2022/12/31 11:22:08;;;;;;;;;4.00;4.00;;;;;16.33;61.65;100794.66;5058680;28;45483;-72
2022/12/31 11:24:37;;;;;;;;;3.00;3.00;;;;;16.37;61.77;100789.75;5000241;28;45310;-75
2022/12/31 11:27:28;;;;;;;;;5.00;3.00;;;;;16.28;61.84;100769.38;5058819;28;45155;-75
2022/12/31 11:30:02;;;;;;;;;3.67;2.67;;;;;16.37;61.52;100782.53;5044134;28;46301;-73
2022/12/31 11:32:54;;;;;;;;;3.67;2.33;;;;;16.34;61.55;100785.59;5040545;28;45345;-76
2022/12/31 11:35:22;;;;;;;;;3.67;3.33;;;;;16.35;61.41;100786.41;5058423;28;45250;-75
2022/12/31 11:37:51;;;;;;;;;3.00;3.00;;;;;16.32;61.12;100786.78;5040851;28;45505;-74
2022/12/31 11:41:10;;;;;;;;;3.00;3.00;;;;;16.33;61.01;100780.41;5058142;28;45643;-75
2022/12/31 11:43:52;;;;;;;;;9.00;9.00;;;;;16.41;61.21;100780.31;4976815;28;45425;-75
2022/12/31 11:46:25;;;;;;;;;6.00;4.67;;;;;16.41;61.39;100794.56;5058329;28;45554;-74
2022/12/31 11:49:40;;;;;;;;;7.33;5.33;;;;;16.30;61.03;100770.03;5058454;28;45360;-76
2022/12/31 11:52:20;;;;;;;;;4.00;4.00;;;;;16.47;60.74;100781.47;5057933;28;47667;-75
2022/12/31 11:54:59;;;;;;;;;5.00;3.75;;;;;16.45;60.64;100787.03;5057807;28;45305;-75
2022/12/31 11:57:32;;;;;;;;;6.00;5.75;;;;;16.48;60.98;100780.44;5058314;28;45310;-75
2022/12/31 12:00:01;;;;;;;;;4.67;4.00;;;;;16.25;60.70;100750.97;5040152;28;45238;-75
2022/12/31 12:02:32;;;;;;;;;9.33;5.33;;;;;16.04;60.45;100708.75;5057457;28;47483;-74
2022/12/31 12:05:00;;;;;;;;;4.67;4.67;;;;;16.37;60.36;100763.75;5058137;28;45422;-75
2022/12/31 12:07:29;;;;;;;;;4.00;2.67;;;;;16.45;60.30;100757.50;5039633;28;45329;-74